Time;durP1;ratioP1;P1;durP2;ratioP2;P2;SDS_P1;SDS_P2;PMS_P1;PMS_P2;Temp;Humidity;BMP_temperature;BMP_pressure;BME280_temperature;BME280_humidity;BME280_pressure;Samples;Min_cycle;Max_cycle;Signal;HPM_P1;HPM_P2
2020/12/20 00:00:27;;;;;;;11.20;5.63;;;;;;;7.59;100.00;100985.50;5004128;28;20052;-63
2020/12/20 00:02:53;;;;;;;10.17;5.60;;;;;;;7.56;100.00;100991.53;5008039;28;20029;-64
2020/12/20 00:05:21;;;;;;;17.10;8.93;;;;;;;7.60;100.00;100998.53;5006656;28;20052;-64
2020/12/20 00:07:47;;;;;;;11.67;6.50;;;;;;;7.69;100.00;100997.84;5000284;28;20151;-63
2020/12/20 00:10:13;;;;;;;13.70;7.13;;;;;;;7.74;100.00;100996.19;5004645;28;20753;-63
2020/12/20 00:12:39;;;;;;;9.90;5.73;;;;;;;7.76;100.00;100998.84;5004666;28;20037;-64
2020/12/20 00:15:06;;;;;;;10.27;4.97;;;;;;;7.84;100.00;100992.03;5005044;28;20069;-64
2020/12/20 00:17:32;;;;;;;10.63;5.70;;;;;;;7.79;100.00;100998.91;5004733;28;20041;-65
2020/12/20 00:19:57;;;;;;;10.70;5.40;;;;;;;7.73;100.00;100998.78;5003760;28;20034;-63
2020/12/20 00:22:23;;;;;;;9.53;5.10;;;;;;;7.64;100.00;100989.97;4999903;28;20065;-64
2020/12/20 00:24:48;;;;;;;9.90;5.17;;;;;;;7.51;100.00;100988.00;4999625;28;20026;-64
2020/12/20 00:27:14;;;;;;;9.60;4.93;;;;;;;7.33;100.00;100993.72;5003325;28;20032;-62
2020/12/20 00:29:40;;;;;;;12.97;5.33;;;;;;;7.32;100.00;100989.34;5004936;28;20032;-63
2020/12/20 00:32:08;;;;;;;10.80;5.17;;;;;;;7.23;100.00;100990.91;5006649;28;20033;-63
2020/12/20 00:34:34;;;;;;;11.03;5.57;;;;;;;7.23;100.00;100988.28;5005640;28;20042;-63
2020/12/20 00:37:00;;;;;;;12.53;5.73;;;;;;;7.29;100.00;100991.03;4998726;28;20561;-64
2020/12/20 00:39:26;;;;;;;10.70;5.33;;;;;;;7.39;100.00;100986.84;4999708;28;20394;-64
2020/12/20 00:42:00;;;;;;;9.90;4.70;;;;;;;7.47;100.00;100987.88;5005445;28;20040;-64
2020/12/20 00:44:26;;;;;;;9.97;4.70;;;;;;;7.53;100.00;100996.69;5004613;28;20037;-62
2020/12/20 00:46:54;;;;;;;8.60;4.63;;;;;;;7.62;100.00;100991.63;5003703;28;20037;-63
2020/12/20 00:49:20;;;;;;;10.70;4.73;;;;;;;7.68;100.00;100995.22;5004890;28;20030;-64
2020/12/20 00:51:45;;;;;;;10.33;4.47;;;;;;;7.69;100.00;100992.63;5002520;28;20036;-63
2020/12/20 00:54:10;;;;;;;10.27;4.77;;;;;;;7.84;100.00;100998.09;5007599;28;20022;-64
2020/12/20 00:56:36;;;;;;;9.40;4.10;;;;;;;7.92;100.00;100995.66;4994699;28;20209;-64
2020/12/20 00:59:01;;;;;;;8.50;4.43;;;;;;;7.98;100.00;100990.53;5010276;28;20040;-64
2020/12/20 01:01:27;;;;;;;8.60;4.30;;;;;;;8.02;100.00;100994.97;5009739;28;20064;-63
2020/12/20 01:03:53;;;;;;;9.83;4.43;;;;;;;8.07;100.00;100995.91;5008428;28;20108;-63
2020/12/20 01:06:23;;;;;;;10.27;4.63;;;;;;;8.10;100.00;100987.25;4992269;28;20018;-64
2020/12/20 01:08:50;;;;;;;8.00;4.20;;;;;;;8.13;100.00;100996.00;5008184;28;20032;-64
2020/12/20 01:11:16;;;;;;;8.37;4.00;;;;;;;8.11;100.00;100992.47;4998672;28;20077;-63
2020/12/20 01:13:46;;;;;;;10.13;5.20;;;;;;;8.09;100.00;100999.41;5004299;28;20516;-64
2020/12/20 01:16:16;;;;;;;9.30;4.83;;;;;;;8.08;100.00;101000.25;4997849;28;20022;-64
2020/12/20 01:18:42;;;;;;;9.33;4.40;;;;;;;8.06;100.00;101001.97;4999200;28;20057;-65
2020/12/20 01:21:07;;;;;;;13.77;5.00;;;;;;;8.05;100.00;100997.59;4998236;28;20022;-64
2020/12/20 01:23:32;;;;;;;9.17;4.40;;;;;;;7.99;100.00;100994.88;4994825;28;20052;-63
2020/12/20 01:26:01;;;;;;;9.00;4.93;;;;;;;7.91;100.00;100996.50;4998122;28;20374;-63
2020/12/20 01:28:28;;;;;;;9.73;4.83;;;;;;;7.81;100.00;101002.41;4991559;28;20501;-64
2020/12/20 01:30:54;;;;;;;11.07;4.50;;;;;;;7.75;100.00;100994.47;5003713;28;20040;-65
2020/12/20 01:33:20;;;;;;;8.93;4.27;;;;;;;7.69;100.00;100996.97;5002077;28;20034;-64
2020/12/20 01:35:45;;;;;;;11.30;4.90;;;;;;;7.55;100.00;100997.59;5002490;28;20060;-64
2020/12/20 01:38:11;;;;;;;11.67;4.97;;;;;;;7.37;100.00;101005.03;4997505;28;20092;-63
2020/12/20 01:40:36;;;;;;;9.97;4.50;;;;;;;7.21;100.00;101003.88;4998608;28;20104;-64
2020/12/20 01:43:02;;;;;;;12.03;4.27;;;;;;;7.12;100.00;101005.41;4995082;28;20037;-63
2020/12/20 01:45:27;;;;;;;12.27;4.73;;;;;;;7.07;100.00;100999.25;4996299;28;20046;-65
2020/12/20 01:47:53;;;;;;;11.27;4.73;;;;;;;7.02;100.00;101012.13;5002702;28;20417;-64
2020/12/20 01:50:19;;;;;;;9.87;4.50;;;;;;;6.94;100.00;101014.59;5000200;28;20049;-65
2020/12/20 01:52:44;;;;;;;11.87;5.20;;;;;;;6.85;100.00;101003.13;4994959;28;20469;-64
2020/12/20 01:55:12;;;;;;;12.23;5.53;;;;;;;6.86;100.00;101000.53;4993821;28;20030;-64
2020/12/20 01:57:39;;;;;;;11.47;5.17;;;;;;;6.88;100.00;100997.97;4997500;28;20026;-64
2020/12/20 02:00:06;;;;;;;9.70;5.10;;;;;;;6.82;100.00;100998.75;4995808;28;20065;-64
2020/12/20 02:02:31;;;;;;;10.03;5.20;;;;;;;6.80;100.00;100990.03;4997863;28;20057;-64
2020/12/20 02:04:57;;;;;;;13.17;5.20;;;;;;;6.76;100.00;100993.38;5001548;28;20505;-64
2020/12/20 02:07:23;;;;;;;12.13;5.13;;;;;;;6.76;100.00;100996.00;4996974;28;20018;-64
2020/12/20 02:09:48;;;;;;;13.60;5.40;;;;;;;6.72;100.00;100999.38;5006215;28;20022;-64
2020/12/20 02:12:14;;;;;;;13.30;5.27;;;;;;;6.75;100.00;100987.31;5000547;28;20022;-65
2020/12/20 02:14:39;;;;;;;13.47;5.50;;;;;;;6.78;100.00;100985.63;5003220;28;20405;-63
2020/12/20 02:17:06;;;;;;;13.60;5.80;;;;;;;6.79;100.00;100988.28;4999039;28;20160;-64
2020/12/20 02:19:31;;;;;;;12.17;5.90;;;;;;;6.85;100.00;100985.78;5004539;28;20508;-62
2020/12/20 02:21:57;;;;;;;11.63;5.73;;;;;;;6.88;100.00;100982.38;4993950;28;20281;-64
2020/12/20 02:24:22;;;;;;;12.23;5.57;;;;;;;6.80;100.00;100979.63;4998012;28;20101;-64
2020/12/20 02:26:48;;;;;;;12.97;5.60;;;;;;;6.80;100.00;100971.84;5000152;28;20033;-63
2020/12/20 02:29:14;;;;;;;14.33;5.87;;;;;;;6.79;100.00;100971.81;4999215;28;20026;-63
2020/12/20 02:31:40;;;;;;;13.60;5.77;;;;;;;6.73;100.00;100977.75;4995588;28;20709;-63
2020/12/20 02:34:05;;;;;;;11.63;5.90;;;;;;;6.76;100.00;100977.78;4997939;28;20575;-65
2020/12/20 02:36:31;;;;;;;10.50;5.27;;;;;;;6.79;100.00;100993.47;4992453;28;20292;-64
2020/12/20 02:38:57;;;;;;;12.10;5.70;;;;;;;6.85;100.00;100998.78;4998813;28;20804;-64
2020/12/20 02:41:23;;;;;;;12.37;5.13;;;;;;;6.84;100.00;100984.03;5002169;28;20027;-62
2020/12/20 02:43:48;;;;;;;12.20;5.40;;;;;;;6.81;100.00;100981.38;5000624;28;20401;-64
2020/12/20 02:46:16;;;;;;;13.07;5.43;;;;;;;6.73;100.00;100980.34;4999379;28;20046;-63
2020/12/20 02:48:42;;;;;;;13.07;5.30;;;;;;;6.69;100.00;100979.41;4994075;28;20033;-63
2020/12/20 02:51:07;;;;;;;10.57;5.03;;;;;;;6.75;100.00;100981.25;4996222;28;20026;-65
2020/12/20 02:53:33;;;;;;;13.37;5.37;;;;;;;6.78;100.00;100986.50;4995716;28;20030;-64
2020/12/20 02:55:58;;;;;;;12.03;5.63;;;;;;;6.83;100.00;100981.41;5001615;28;20447;-63
2020/12/20 02:58:23;;;;;;;11.17;5.17;;;;;;;6.83;100.00;100974.50;5003283;28;20026;-64
2020/12/20 03:00:49;;;;;;;12.67;5.50;;;;;;;6.83;100.00;100984.91;5005329;28;20042;-63
2020/12/20 03:03:14;;;;;;;10.50;5.10;;;;;;;6.85;100.00;100990.13;5000136;28;20022;-64
2020/12/20 03:05:40;;;;;;;9.67;5.37;;;;;;;6.87;100.00;100986.69;4998422;28;20512;-63
2020/12/20 03:08:05;;;;;;;13.47;5.57;;;;;;;6.89;100.00;100978.94;5003033;28;20109;-64
2020/12/20 03:10:31;;;;;;;13.13;5.23;;;;;;;6.89;100.00;100984.13;5006602;28;20108;-65
2020/12/20 03:12:57;;;;;;;13.97;5.77;;;;;;;6.94;100.00;100980.78;5003518;28;20025;-63
2020/12/20 03:15:22;;;;;;;11.20;5.00;;;;;;;6.90;100.00;100976.34;5001732;28;20113;-64
2020/12/20 03:17:48;;;;;;;11.93;5.23;;;;;;;6.93;100.00;100978.16;4999915;28;20509;-64
2020/12/20 03:20:13;;;;;;;11.17;5.10;;;;;;;6.84;100.00;100976.25;5003644;28;20026;-63
2020/12/20 03:22:39;;;;;;;11.70;4.73;;;;;;;6.86;100.00;100969.34;5004032;28;20052;-64
2020/12/20 03:25:04;;;;;;;11.00;5.67;;;;;;;6.93;100.00;100975.56;5003246;28;20025;-64
2020/12/20 03:27:30;;;;;;;11.17;5.30;;;;;;;6.98;100.00;100973.94;4996452;28;20065;-63
2020/12/20 03:29:56;;;;;;;10.43;5.13;;;;;;;7.03;100.00;100977.53;5003733;28;20057;-63
2020/12/20 03:32:21;;;;;;;12.67;5.10;;;;;;;7.02;100.00;100976.59;5003765;28;20533;-64
2020/12/20 03:34:47;;;;;;;10.80;5.40;;;;;;;7.04;100.00;100982.75;5003819;28;20053;-64
2020/12/20 03:37:13;;;;;;;13.07;5.30;;;;;;;7.09;100.00;100976.75;5000786;28;20164;-63
2020/12/20 03:39:38;;;;;;;13.97;6.07;;;;;;;7.08;100.00;100985.41;5005563;28;20030;-64
2020/12/20 03:42:04;;;;;;;12.67;5.13;;;;;;;7.07;100.00;100978.44;5003206;28;20066;-64
2020/12/20 03:44:29;;;;;;;13.03;5.10;;;;;;;7.08;100.00;100980.19;5000167;28;20104;-64
2020/12/20 03:46:55;;;;;;;12.03;4.70;;;;;;;7.10;100.00;100988.91;4996942;28;20026;-63
2020/12/20 03:49:20;;;;;;;11.60;5.63;;;;;;;7.10;100.00;100983.69;5001858;28;20499;-64
2020/12/20 03:51:46;;;;;;;13.20;5.37;;;;;;;7.12;100.00;100982.00;4997055;28;20034;-64
2020/12/20 03:54:11;;;;;;;12.33;4.93;;;;;;;7.20;100.00;100985.66;4998545;28;20402;-64
2020/12/20 03:56:36;;;;;;;11.17;5.20;;;;;;;7.19;100.00;100976.09;5008617;28;20112;-63
2020/12/20 03:59:02;;;;;;;10.60;4.97;;;;;;;7.19;100.00;100978.69;5001961;28;20030;-62
2020/12/20 04:01:28;;;;;;;11.57;4.70;;;;;;;7.16;100.00;100982.13;4998999;28;20108;-63
2020/12/20 04:03:54;;;;;;;10.33;5.07;;;;;;;7.14;100.00;100985.50;5005069;28;20471;-64
2020/12/20 04:06:19;;;;;;;11.57;4.87;;;;;;;7.12;100.00;100987.19;5002694;28;20524;-63
2020/12/20 04:08:44;;;;;;;9.83;4.70;;;;;;;7.13;100.00;100992.44;5001624;28;20081;-63
2020/12/20 04:11:10;;;;;;;10.73;5.03;;;;;;;7.04;100.00;100990.53;4999911;28;20030;-64
2020/12/20 04:13:35;;;;;;;13.97;5.97;;;;;;;7.02;100.00;100991.34;5001716;28;20018;-64
2020/12/20 04:16:05;;;;;;;13.27;5.47;;;;;;;7.03;100.00;100994.00;4999643;28;20383;-64
2020/12/20 04:18:30;;;;;;;10.80;5.47;;;;;;;6.98;100.00;100987.81;4997796;28;20026;-64
2020/12/20 04:20:55;;;;;;;13.03;4.90;;;;;;;6.96;100.00;100986.03;5005168;28;20034;-65
2020/12/20 04:23:21;;;;;;;9.87;4.63;;;;;;;6.98;100.00;100990.41;4998598;28;20490;-64
2020/12/20 04:25:46;;;;;;;12.77;5.30;;;;;;;6.94;100.00;100986.00;4999249;28;20030;-64
2020/12/20 04:28:12;;;;;;;11.77;5.77;;;;;;;6.96;100.00;100994.69;5001139;28;20053;-64
2020/12/20 04:30:37;;;;;;;10.40;4.87;;;;;;;6.98;100.00;100992.13;4999767;28;20081;-64
2020/12/20 04:33:02;;;;;;;13.90;4.87;;;;;;;7.01;100.00;100995.66;5003233;28;20026;-65
2020/12/20 04:35:28;;;;;;;10.43;5.40;;;;;;;7.02;100.00;100996.53;4995284;28;20087;-62
2020/12/20 04:37:53;;;;;;;11.03;5.40;;;;;;;7.04;100.00;100994.88;5004201;28;20029;-64
2020/12/20 04:40:19;;;;;;;13.07;5.30;;;;;;;7.08;100.00;101001.00;4998864;28;20030;-64
2020/12/20 04:42:45;;;;;;;10.93;4.83;;;;;;;7.02;100.00;100992.22;4998941;28;20052;-64
2020/12/20 04:45:10;;;;;;;10.67;4.90;;;;;;;7.00;100.00;100987.84;5001486;28;20053;-64
2020/12/20 04:47:38;;;;;;;11.17;5.27;;;;;;;6.99;100.00;100986.97;4997538;28;20064;-64
2020/12/20 04:50:04;;;;;;;11.27;4.83;;;;;;;6.98;100.00;100990.41;4998172;28;20042;-64
2020/12/20 04:52:31;;;;;;;12.30;5.07;;;;;;;6.95;100.00;100992.94;4998825;28;20026;-64
2020/12/20 04:54:58;;;;;;;10.93;5.27;;;;;;;6.90;100.00;100989.34;4998968;28;20026;-63
2020/12/20 04:57:23;;;;;;;10.83;5.03;;;;;;;6.96;100.00;100991.22;4997944;28;20049;-64
2020/12/20 04:59:49;;;;;;;11.83;5.37;;;;;;;6.89;100.00;100985.00;5003569;28;20064;-63
2020/12/20 05:02:15;;;;;;;11.50;5.40;;;;;;;6.97;100.00;100988.66;5006297;28;20400;-63
2020/12/20 05:04:41;;;;;;;14.23;5.00;;;;;;;6.93;100.00;100986.84;4997789;28;20029;-63
2020/12/20 05:07:06;;;;;;;11.40;5.53;;;;;;;6.88;100.00;100988.44;4998756;28;20026;-64
2020/12/20 05:09:45;;;;;;;9.47;5.17;;;;;;;6.88;100.00;100988.44;5006175;28;20575;-64
2020/12/20 05:12:27;;;;;;;10.50;5.13;;;;;;;6.89;100.00;100987.59;4997314;28;20501;-63
2020/12/20 05:14:53;;;;;;;13.20;4.97;;;;;;;6.88;100.00;100992.78;5002889;28;20072;-63
2020/12/20 05:17:19;;;;;;;10.23;4.80;;;;;;;6.83;100.00;100995.28;4997798;28;20066;-63
2020/12/20 05:19:45;;;;;;;13.03;5.30;;;;;;;6.84;100.00;100997.03;5000852;28;20035;-63
2020/12/20 05:22:19;;;;;;;12.77;5.17;;;;;;;6.83;100.00;101000.50;4995895;28;20022;-64
2020/12/20 05:24:51;;;;;;;10.47;5.40;;;;;;;6.84;100.00;101004.84;4995995;28;20056;-64
2020/12/20 05:27:28;;;;;;;10.75;5.05;;;;;;;6.80;100.00;101000.44;4998032;28;20033;-64
2020/12/20 05:30:13;;;;;;;12.53;5.33;;;;;;;6.74;100.00;101005.47;4996204;28;20034;-65
2020/12/20 05:32:40;;;;;;;12.57;5.33;;;;;;;6.68;100.00;101010.56;4996736;28;20030;-64
2020/12/20 05:35:15;;;;;;;12.17;5.27;;;;;;;6.69;100.00;101005.41;4995849;28;20512;-64
2020/12/20 05:37:42;;;;;;;10.60;4.77;;;;;;;6.74;100.00;101010.69;4996703;28;20449;-64
2020/12/20 05:40:15;;;;;;;11.17;5.33;;;;;;;6.73;100.00;101008.94;4999318;28;20029;-63
2020/12/20 05:42:56;;;;;;;13.02;4.80;;;;;;;6.73;100.00;101001.13;4994964;28;20030;-64
2020/12/20 05:45:24;;;;;;;15.77;5.00;;;;;;;6.72;100.00;101004.56;4999842;28;20022;-65
2020/12/20 05:47:50;;;;;;;11.37;5.07;;;;;;;6.67;100.00;100998.41;4999356;28;20465;-65
2020/12/20 05:50:16;;;;;;;10.03;4.63;;;;;;;6.69;100.00;101001.91;5001054;28;20054;-64
2020/12/20 05:52:42;;;;;;;11.50;5.57;;;;;;;6.70;100.00;101003.66;4998967;28;20401;-64
2020/12/20 05:55:11;;;;;;;13.87;5.00;;;;;;;6.69;100.00;101001.91;4999647;28;20033;-64
2020/12/20 05:57:37;;;;;;;10.27;4.83;;;;;;;6.66;100.00;101007.94;4994849;28;20502;-64
2020/12/20 06:00:04;;;;;;;11.47;5.10;;;;;;;6.61;100.00;101009.53;4998946;28;20084;-63
2020/12/20 06:02:29;;;;;;;11.23;5.33;;;;;;;6.61;100.00;101011.25;4997135;28;20076;-64
2020/12/20 06:04:55;;;;;;;9.40;4.77;;;;;;;6.55;100.00;101006.81;4999798;28;20034;-64
2020/12/20 06:07:26;;;;;;;12.43;5.60;;;;;;;6.53;100.00;101010.19;4995944;28;20641;-64
2020/12/20 06:09:57;;;;;;;12.13;5.57;;;;;;;6.52;100.00;101014.50;5001232;28;20609;-64
2020/12/20 06:12:32;;;;;;;13.33;5.37;;;;;;;6.41;100.00;101006.47;4996501;28;20029;-64
2020/12/20 06:14:59;;;;;;;10.63;5.13;;;;;;;6.30;100.00;101007.97;4995040;28;20030;-64
2020/12/20 06:17:26;;;;;;;11.97;5.30;;;;;;;6.21;100.00;101012.94;5001026;28;20094;-65
2020/12/20 06:20:02;;;;;;;10.40;5.33;;;;;;;6.10;100.00;101014.38;4996481;28;20501;-64
2020/12/20 06:22:32;;;;;;;13.53;5.13;;;;;;;5.99;100.00;101005.44;4997677;28;20042;-64
2020/12/20 06:25:04;;;;;;;11.57;5.67;;;;;;;5.88;100.00;101003.44;4998738;28;20052;-63
2020/12/20 06:27:31;;;;;;;13.15;5.50;;;;;;;5.77;100.00;101010.06;4996225;28;20516;-64
2020/12/20 06:29:59;;;;;;;12.20;5.60;;;;;;;5.71;100.00;101012.50;4997401;28;20038;-63
2020/12/20 06:32:38;;;;;;;13.63;5.67;;;;;;;5.69;100.00;101019.34;4998474;28;20407;-64
2020/12/20 06:35:11;;;;;;;11.60;5.53;;;;;;;5.73;100.00;101010.81;5000223;28;20287;-64
2020/12/20 06:37:42;;;;;;;12.67;6.10;;;;;;;5.77;100.00;101004.00;4997562;28;20277;-64
2020/12/20 06:40:09;;;;;;;14.20;6.07;;;;;;;5.81;100.00;101014.47;4995443;28;20427;-63
2020/12/20 06:42:37;;;;;;;15.87;5.80;;;;;;;5.86;100.00;101019.81;4999621;28;20277;-64
2020/12/20 06:45:13;;;;;;;14.00;6.00;;;;;;;6.00;100.00;101017.59;4998699;28;20277;-63
2020/12/20 06:47:43;;;;;;;11.90;5.73;;;;;;;6.09;100.00;101012.63;5006432;28;20408;-64
2020/12/20 06:50:08;;;;;;;14.50;6.53;;;;;;;6.15;100.00;101020.56;4997154;28;20300;-64
2020/12/20 06:52:44;;;;;;;14.17;6.17;;;;;;;6.22;100.00;101014.69;4998914;28;20764;-63
2020/12/20 06:55:13;;;;;;;15.57;6.30;;;;;;;6.29;100.00;101026.06;4991064;28;20445;-64
2020/12/20 06:58:06;;;;;;;14.07;6.03;;;;;;;6.43;100.00;101022.13;4996840;28;20041;-64
2020/12/20 07:00:51;;;;;;;12.80;5.67;;;;;;;6.41;100.00;101027.25;4994300;28;20037;-64
2020/12/20 07:03:25;;;;;;;11.40;5.40;;;;;;;6.50;100.00;101026.59;4992949;28;20536;-64
2020/12/20 07:05:54;;;;;;;13.57;5.77;;;;;;;6.54;100.00;101017.13;5002942;28;20776;-65
2020/12/20 07:08:22;;;;;;;11.43;5.47;;;;;;;6.58;100.00;101019.00;5008367;28;20034;-63
2020/12/20 07:10:55;;;;;;;13.00;5.87;;;;;;;6.63;100.00;101032.94;5000793;28;20278;-64
2020/12/20 07:13:40;;;;;;;12.67;5.30;;;;;;;6.62;100.00;101036.38;5002666;28;20030;-64
2020/12/20 07:16:14;;;;;;;11.53;5.33;;;;;;;6.57;100.00;101033.69;4994594;28;20036;-65
2020/12/20 07:18:55;;;;;;;11.63;5.30;;;;;;;6.45;100.00;101036.88;4998812;28;20026;-64
2020/12/20 07:21:23;;;;;;;11.13;5.07;;;;;;;6.39;100.00;101047.13;4998061;28;20026;-64
2020/12/20 07:23:54;;;;;;;11.03;5.27;;;;;;;6.41;100.00;101040.22;4993016;28;20026;-64
2020/12/20 07:26:22;;;;;;;12.60;5.37;;;;;;;6.42;100.00;101041.09;5001316;28;20026;-64
2020/12/20 07:28:49;;;;;;;10.43;4.80;;;;;;;6.39;100.00;101044.53;4992192;28;20058;-63
2020/12/20 07:31:20;;;;;;;12.37;5.27;;;;;;;6.37;100.00;101045.34;4994680;28;20034;-62
2020/12/20 07:33:47;;;;;;;13.15;5.78;;;;;;;6.31;100.00;101051.28;4997518;28;20532;-63
2020/12/20 07:36:13;;;;;;;11.13;5.37;;;;;;;6.29;100.00;101042.53;4998642;28;20124;-64
2020/12/20 07:38:39;;;;;;;11.77;5.47;;;;;;;6.34;100.00;101043.53;4999826;28;20421;-64
2020/12/20 07:41:09;;;;;;;12.63;5.30;;;;;;;6.36;100.00;101049.66;4995322;28;20041;-65
2020/12/20 07:43:34;;;;;;;13.90;5.60;;;;;;;6.37;100.00;101058.31;5004209;28;20032;-65
2020/12/20 07:46:02;;;;;;;13.43;5.40;;;;;;;6.38;100.00;101057.47;4992690;28;20022;-63
2020/12/20 07:48:28;;;;;;;12.73;5.23;;;;;;;6.40;100.00;101056.66;5003584;28;20033;-63
2020/12/20 07:51:06;;;;;;;11.60;5.30;;;;;;;6.46;100.00;101067.22;4995038;28;20038;-63
2020/12/20 07:53:31;;;;;;;13.80;5.20;;;;;;;6.47;100.00;101074.16;4999842;28;20410;-64
2020/12/20 07:55:57;;;;;;;12.10;5.53;;;;;;;6.51;100.00;101063.84;5002184;28;20034;-65
2020/12/20 07:58:23;;;;;;;14.17;5.30;;;;;;;6.53;100.00;101069.94;5000558;28;20037;-65
2020/12/20 08:00:48;;;;;;;15.63;5.10;;;;;;;6.53;100.00;101077.75;5003928;28;20492;-64
2020/12/20 08:03:15;;;;;;;9.80;5.00;;;;;;;6.56;100.00;101072.63;5001453;28;20108;-64
2020/12/20 08:05:40;;;;;;;11.03;5.10;;;;;;;6.51;100.00;101074.22;4997688;28;20068;-63
2020/12/20 08:08:06;;;;;;;11.60;5.53;;;;;;;6.49;100.00;101065.53;4999377;28;20637;-64
2020/12/20 08:10:31;;;;;;;12.57;5.77;;;;;;;6.39;100.00;101069.63;4999117;28;20034;-64
2020/12/20 08:12:57;;;;;;;9.63;4.97;;;;;;;6.34;100.00;101074.72;5002037;28;20057;-63
2020/12/20 08:15:22;;;;;;;12.90;5.77;;;;;;;6.28;100.00;101066.75;5000822;28;20034;-63
2020/12/20 08:17:47;;;;;;;14.27;5.47;;;;;;;6.21;100.00;101070.06;5002871;28;20512;-64
2020/12/20 08:20:18;;;;;;;12.47;5.07;;;;;;;6.13;100.00;101081.97;5001159;28;20026;-64
2020/12/20 08:22:45;;;;;;;10.97;5.20;;;;;;;6.16;100.00;101076.84;5004659;28;20104;-64
2020/12/20 08:25:11;;;;;;;14.83;6.13;;;;;;;6.15;100.00;101075.06;5004389;28;20065;-64
2020/12/20 08:27:42;;;;;;;12.60;5.47;;;;;;;6.20;100.00;101070.91;4999899;28;20029;-64
2020/12/20 08:30:09;;;;;;;13.27;5.97;;;;;;;6.28;100.00;101078.88;5003888;28;20053;-64
2020/12/20 08:32:42;;;;;;;13.43;5.37;;;;;;;6.39;100.00;101075.69;4996301;28;20022;-64
2020/12/20 08:35:19;;;;;;;11.60;5.53;;;;;;;6.51;100.00;101079.44;5001025;28;20028;-64
2020/12/20 08:37:46;;;;;;;10.97;5.33;;;;;;;6.63;100.00;101079.72;5001567;28;20040;-64
2020/12/20 08:40:13;;;;;;;10.93;5.40;;;;;;;6.74;100.00;101079.13;5002131;28;20129;-64
2020/12/20 08:42:40;;;;;;;11.80;5.23;;;;;;;6.83;100.00;101078.47;5009074;28;20112;-64
2020/12/20 08:45:15;;;;;;;9.90;4.93;;;;;;;6.90;100.00;101069.06;5007459;28;20104;-62
2020/12/20 08:47:42;;;;;;;10.03;4.77;;;;;;;6.92;100.00;101077.81;5004224;28;20037;-64
2020/12/20 08:50:08;;;;;;;9.67;4.67;;;;;;;6.91;100.00;101087.31;5009494;28;20026;-63
2020/12/20 08:52:34;;;;;;;14.43;5.23;;;;;;;6.88;100.00;101092.44;5005195;28;20083;-63
2020/12/20 08:55:01;;;;;;;11.57;5.20;;;;;;;6.90;100.00;101087.25;5009106;28;20034;-63
2020/12/20 08:57:30;;;;;;;12.40;5.33;;;;;;;6.93;100.00;101085.63;5005376;28;20034;-64
2020/12/20 09:00:07;;;;;;;11.57;5.37;;;;;;;6.99;100.00;101090.97;5007878;28;20099;-64
2020/12/20 09:02:33;;;;;;;9.53;4.83;;;;;;;7.05;100.00;101090.22;5008789;28;20030;-63
2020/12/20 09:05:06;;;;;;;11.27;5.13;;;;;;;7.12;100.00;101092.09;5011722;28;20044;-64
2020/12/20 09:07:34;;;;;;;10.17;4.93;;;;;;;7.22;100.00;101093.19;5004204;28;20037;-65
2020/12/20 09:10:03;;;;;;;12.47;5.33;;;;;;;7.29;100.00;101092.47;5011133;28;20034;-64
2020/12/20 09:12:29;;;;;;;13.23;5.53;;;;;;;7.40;100.00;101088.38;5009934;28;20037;-63
2020/12/20 09:15:10;;;;;;;12.97;5.20;;;;;;;7.52;100.00;101087.75;5003414;28;20029;-64
2020/12/20 09:17:46;;;;;;;11.47;4.93;;;;;;;7.59;100.00;101087.88;5002718;28;20046;-64
2020/12/20 09:20:14;;;;;;;10.50;4.90;;;;;;;7.71;100.00;101094.19;5007262;28;20113;-64
2020/12/20 09:22:53;;;;;;;11.57;5.10;;;;;;;7.80;100.00;101096.97;5013109;28;20037;-64
2020/12/20 09:25:35;;;;;;;10.67;5.37;;;;;;;7.91;100.00;101098.06;5002112;28;20038;-64
2020/12/20 09:28:07;;;;;;;11.05;4.80;;;;;;;8.01;100.00;101099.97;5000791;28;20421;-64
2020/12/20 09:30:39;;;;;;;10.20;4.70;;;;;;;8.09;100.00;101098.38;5009328;28;20408;-64
2020/12/20 09:33:38;;;;;;;11.23;4.85;;;;;;;8.22;100.00;101099.47;5018304;28;20570;-62
2020/12/20 09:36:19;;;;;;;9.63;4.80;;;;;;;8.26;100.00;101100.41;4999735;28;20048;-64
2020/12/20 09:38:52;;;;;;;9.60;4.70;;;;;;;8.29;100.00;101106.56;5003320;28;20248;-65
2020/12/20 09:41:21;;;;;;;10.03;4.43;;;;;;;8.34;100.00;101104.00;5006143;28;20038;-63
2020/12/20 09:43:48;;;;;;;10.93;5.43;;;;;;;8.38;100.00;101103.28;5003956;28;20038;-62
2020/12/20 09:46:33;;;;;;;12.50;5.50;;;;;;;8.39;100.00;101107.63;5008131;28;20030;-64
2020/12/20 09:48:59;;;;;;;13.03;4.67;;;;;;;8.40;100.00;101119.81;5006379;28;20091;-64
2020/12/20 09:51:25;;;;;;;10.33;4.70;;;;;;;8.44;100.00;101111.16;5001298;28;20069;-64
2020/12/20 09:53:52;;;;;;;9.47;4.77;;;;;;;8.45;100.00;101118.13;4999024;28;20117;-65
2020/12/20 09:56:17;;;;;;;8.37;4.60;;;;;;;8.50;100.00;101106.94;5002889;28;20510;-64
2020/12/20 09:58:43;;;;;;;9.63;4.77;;;;;;;8.62;100.00;101110.63;5003233;28;20109;-63
2020/12/20 10:01:22;;;;;;;9.13;4.67;;;;;;;8.64;100.00;101107.16;5001651;28;20061;-64
2020/12/20 10:03:48;;;;;;;10.20;5.23;;;;;;;8.70;100.00;101109.84;4993475;28;20078;-64
2020/12/20 10:06:15;;;;;;;9.67;4.83;;;;;;;8.72;100.00;101112.50;5003284;28;20069;-64
2020/12/20 10:08:41;;;;;;;10.63;5.10;;;;;;;8.75;100.00;101103.00;4989951;28;20412;-64
2020/12/20 10:11:11;;;;;;;8.73;4.50;;;;;;;8.77;100.00;101101.28;5005808;28;20378;-64
2020/12/20 10:13:37;;;;;;;9.50;4.67;;;;;;;8.82;100.00;101104.84;4984010;28;20425;-64
2020/12/20 10:16:03;;;;;;;8.93;4.73;;;;;;;8.87;100.00;101098.81;4984641;28;20033;-63
2020/12/20 10:18:28;;;;;;;9.63;4.70;;;;;;;8.82;100.00;101104.84;5007933;28;20059;-64
2020/12/20 10:20:54;;;;;;;9.40;4.80;;;;;;;8.86;100.00;101110.13;5005844;28;20519;-64
2020/12/20 10:23:20;;;;;;;10.27;4.80;;;;;;;8.86;100.00;101104.91;5002367;28;20124;-64
2020/12/20 10:25:45;;;;;;;9.93;5.00;;;;;;;8.88;100.00;101114.50;5001556;28;20306;-64
2020/12/20 10:28:11;;;;;;;9.47;4.33;;;;;;;8.88;100.00;101113.63;5002279;28;20058;-64
2020/12/20 10:30:37;;;;;;;8.87;4.57;;;;;;;8.93;100.00;101115.44;5000424;28;20125;-64
2020/12/20 10:33:03;;;;;;;11.80;4.90;;;;;;;8.98;100.00;101105.09;4995465;28;20662;-64
2020/12/20 10:35:29;;;;;;;10.00;4.90;;;;;;;9.07;100.00;101110.41;5001033;28;20036;-64
2020/12/20 10:37:57;;;;;;;11.43;4.33;;;;;;;9.12;100.00;101093.09;5000347;28;20512;-65
2020/12/20 10:40:24;;;;;;;10.47;5.23;;;;;;;9.20;100.00;101099.28;5001065;28;20535;-66
2020/12/20 10:42:50;;;;;;;11.13;4.67;;;;;;;9.13;100.00;101094.84;5002121;28;20547;-65
2020/12/20 10:45:16;;;;;;;10.57;4.37;;;;;;;9.14;100.00;101094.00;4995330;28;20033;-65
2020/12/20 10:47:42;;;;;;;12.33;4.87;;;;;;;9.17;100.00;101104.47;5003090;28;20132;-66
2020/12/20 10:50:08;;;;;;;10.57;5.07;;;;;;;9.09;100.00;101098.28;5004684;28;20121;-64
2020/12/20 10:52:33;;;;;;;10.87;4.63;;;;;;;9.02;100.00;101086.00;5002466;28;20033;-65
2020/12/20 10:55:00;;;;;;;11.33;5.03;;;;;;;8.89;100.00;101089.28;4997305;28;20302;-65
2020/12/20 10:57:26;;;;;;;11.27;4.90;;;;;;;8.77;100.00;101088.25;5003142;28;20425;-65
2020/12/20 10:59:51;;;;;;;10.30;4.80;;;;;;;8.71;100.00;101095.97;4999303;28;20045;-64
2020/12/20 11:02:17;;;;;;;9.83;4.73;;;;;;;8.78;100.00;101097.81;5003057;28;20037;-66
2020/12/20 11:04:43;;;;;;;10.20;5.07;;;;;;;8.89;100.00;101089.28;4999197;28;20546;-66
2020/12/20 11:07:08;;;;;;;10.07;5.07;;;;;;;8.91;100.00;101087.56;5002500;28;20041;-65
2020/12/20 11:09:34;;;;;;;10.53;5.40;;;;;;;8.95;100.00;101097.19;5004313;28;20045;-65
2020/12/20 11:11:59;;;;;;;9.83;4.47;;;;;;;9.01;100.00;101094.69;4981786;28;20034;-65
2020/12/20 11:14:25;;;;;;;12.70;4.90;;;;;;;9.12;100.00;101093.09;5000509;28;20029;-65
2020/12/20 11:16:51;;;;;;;11.60;4.70;;;;;;;9.10;100.00;101084.38;5001979;28;20041;-64
2020/12/20 11:19:19;;;;;;;12.90;4.73;;;;;;;9.05;100.00;101089.53;4990731;28;20444;-64
2020/12/20 11:21:49;;;;;;;9.77;4.93;;;;;;;8.98;100.00;101084.22;4997936;28;20073;-65